Archival Weather

Chicago O'Hare International

Chicago, Illinois (KORD)

Report from: Thursday, March 21, 2024 2:51 AM CDT
Current time: Tuesday, May 21, 2024 10:55 AM CDT

Current weather – Weather history – Daily summaries
Weather forecast

Temperature-1.1°C (30.0°F)
Dew point-7.8°C (18.0°F)
Winds Calm
Visibility10 mi. (16.1 km)
Clouds Few clouds 5,000 ft. (1,524 m)
Scattered clouds 15,000 ft. (4,572 m)
Altimeter30.23 in.Hg (1024 mB)
Relative humidity60 %
Density altitude-2,292 ft. (-699 m)
Sea-level pressure102.4 kPa (1024 mB, 30.25 in.Hg)
Remarks System requires maintenance
Automated weather observing station with precipitation discriminator
Flight conditions Visual Meteorological Conditions
Raw dataKORD 210751Z 00000KT 10SM FEW050 SCT150 M01/M08 A3023 RMK AO2 SLP243 T10111078 $
An error has occurred. This application may no longer respond until reloaded. Reload 🗙